Time;durP1;ratioP1;P1;durP2;ratioP2;P2;SDS_P1;SDS_P2;PMS_P1;PMS_P2;Temp;Humidity;BMP_temperature;BMP_pressure;BME280_temperature;BME280_humidity;BME280_pressure;Samples;Min_cycle;Max_cycle;Signal;HPM_P1;HPM_P2
2022/02/15 00:02:41;;;;;;;57.83;23.37;;;;;;;4.00;78.23;99948.34;5033711;57;1136711;-77
2022/02/15 00:07:47;;;;;;;37.83;18.50;;;;;;;4.00;78.34;99939.18;5033686;57;1136839;-79
2022/02/15 00:12:52;;;;;;;52.07;21.20;;;;;;;3.98;78.31;99942.35;5037902;55;1136713;-77
2022/02/15 00:17:59;;;;;;;51.33;22.27;;;;;;;3.93;78.42;99937.88;5037857;56;1137078;-79
2022/02/15 00:23:05;;;;;;;46.67;21.20;;;;;;;3.85;78.40;99934.39;5037791;57;1136757;-76
2022/02/15 00:28:10;;;;;;;45.60;20.33;;;;;;;3.83;78.52;99935.80;5037960;57;1136616;-73
2022/02/15 00:33:17;;;;;;;49.87;20.40;;;;;;;3.75;78.84;99936.72;5037919;57;1136576;-75
2022/02/15 00:38:25;;;;;;;41.27;19.73;;;;;;;3.69;78.96;99936.23;5037649;57;1136770;-79
2022/02/15 00:43:31;;;;;;;42.80;19.70;;;;;;;3.65;79.02;99930.83;5038008;57;1136587;-77
2022/02/15 00:48:37;;;;;;;39.97;19.03;;;;;;;3.64;79.16;99935.21;5037657;57;1136606;-74
2022/02/15 00:53:43;;;;;;;42.33;18.43;;;;;;;3.60;79.33;99928.94;5037810;57;1139348;-72
2022/02/15 00:58:49;;;;;;;44.63;20.68;;;;;;;3.56;79.43;99928.27;5037729;57;1136619;-79
2022/02/15 01:03:55;;;;;;;44.13;21.00;;;;;;;3.55;79.51;99939.66;5037780;57;1136655;-76
2022/02/15 01:09:01;;;;;;;42.55;19.12;;;;;;;3.50;79.47;99940.41;5037052;57;1136696;-76
2022/02/15 01:14:07;;;;;;;38.53;19.12;;;;;;;3.51;79.71;99944.20;5032999;57;1136481;-72
2022/02/15 01:19:13;;;;;;;48.70;20.12;;;;;;;3.49;79.82;99936.95;5033162;57;1136743;-75
2022/02/15 01:24:20;;;;;;;38.00;17.03;;;;;;;3.49;80.02;99927.80;5041885;57;1136589;-75
2022/02/15 01:29:26;;;;;;;38.13;18.63;;;;;;;3.49;80.00;99920.42;5052976;57;1136631;-80
2022/02/15 01:34:32;;;;;;;27.40;14.30;;;;;;;3.49;80.24;99917.80;5052962;57;1136615;-73
2022/02/15 01:39:38;;;;;;;37.10;17.90;;;;;;;3.48;80.34;99920.04;5052835;57;1136602;-77
2022/02/15 01:44:45;;;;;;;39.55;16.10;;;;;;;3.48;80.43;99920.88;5052708;57;1146353;-74
2022/02/15 01:49:52;;;;;;;33.67;16.93;;;;;;;3.48;80.49;99910.42;5052972;57;1136536;-73
2022/02/15 01:55:03;;;;;;;32.08;15.70;;;;;;;3.46;80.66;99925.35;5052990;57;1136533;-76
2022/02/15 02:00:14;;;;;;;35.70;16.57;;;;;;;3.43;80.78;99916.38;5052562;57;1136719;-71
2022/02/15 02:10:50;;;;;;;31.70;15.70;;;;;;;3.42;81.13;99916.45;5055714;57;1136697;-73
2022/02/15 02:16:00;;;;;;;30.27;15.23;;;;;;;3.41;81.27;99912.16;5026898;57;1136738;-74
2022/02/15 02:21:10;;;;;;;30.70;14.80;;;;;;;3.42;81.34;99912.54;5025941;57;1136589;-74
2022/02/15 02:26:17;;;;;;;32.70;15.90;;;;;;;3.39;81.37;99910.09;5057739;56;1136810;-76
2022/02/15 02:31:22;;;;;;;26.57;13.43;;;;;;;3.44;81.42;99914.60;5057208;57;1136833;-74
2022/02/15 02:36:48;;;;;;;42.43;17.23;;;;;;;3.45;81.40;99912.37;5037642;57;1136718;-76
2022/02/15 02:41:55;;;;;;;31.20;15.15;;;;;;;3.44;81.43;99913.30;5038556;57;1136763;-75
2022/02/15 02:47:01;;;;;;;32.40;17.30;;;;;;;3.43;81.57;99912.45;5057661;57;1136761;-79
2022/02/15 02:52:08;;;;;;;36.57;17.83;;;;;;;3.41;81.59;99914.77;5057242;57;1136730;-74
2022/02/15 02:57:16;;;;;;;34.77;16.20;;;;;;;3.43;81.61;99913.77;5038118;56;1136845;-76
2022/02/15 03:02:22;;;;;;;33.20;17.43;;;;;;;3.48;81.73;99914.81;5038278;55;1136850;-74
2022/02/15 03:07:28;;;;;;;30.53;15.33;;;;;;;3.49;81.64;99907.34;5037980;56;1137245;-75
2022/02/15 03:12:35;;;;;;;38.17;16.73;;;;;;;3.54;81.53;99914.44;5053837;57;1136718;-75
2022/02/15 03:17:40;;;;;;;31.57;15.37;;;;;;;3.54;81.42;99913.97;5051313;57;1225238;-70
2022/02/15 03:22:46;;;;;;;30.72;15.15;;;;;;;3.55;81.48;99912.20;5053186;57;1145010;-77
2022/02/15 03:27:53;;;;;;;34.90;16.55;;;;;;;3.58;81.43;99912.03;5044653;57;1136829;-77
2022/02/15 03:32:59;;;;;;;32.33;14.87;;;;;;;3.59;81.50;99918.09;5033489;57;1136738;-76
2022/02/15 03:38:05;;;;;;;35.13;15.77;;;;;;;3.58;81.46;99918.56;5033687;57;1136693;-76
2022/02/15 03:43:12;;;;;;;35.00;15.80;;;;;;;3.56;81.45;99921.73;5033436;57;1136903;-77
2022/02/15 03:48:18;;;;;;;32.13;16.43;;;;;;;3.55;81.77;99923.97;5033514;57;1136742;-78
2022/02/15 03:53:25;;;;;;;34.60;15.63;;;;;;;3.55;81.99;99922.66;5033299;57;1136714;-75
2022/02/15 03:58:31;;;;;;;31.57;12.50;;;;;;;3.55;82.12;99917.42;5033341;57;1136663;-74
2022/02/15 04:03:37;;;;;;;39.50;16.13;;;;;;;3.57;82.30;99925.19;5033256;57;1136848;-73
2022/02/15 04:08:43;;;;;;;32.73;16.12;;;;;;;3.55;82.25;99921.34;5033886;57;1136695;-72
2022/02/15 04:13:49;;;;;;;38.93;16.47;;;;;;;3.53;82.41;99927.97;5038222;57;1136816;-78
2022/02/15 04:18:54;;;;;;;31.55;17.02;;;;;;;3.53;82.66;99927.13;5037968;57;1136742;-71
2022/02/15 04:24:00;;;;;;;30.65;14.90;;;;;;;3.53;82.68;99928.44;5037870;57;1136944;-79
2022/02/15 04:29:07;;;;;;;28.90;16.97;;;;;;;3.53;83.02;99931.05;5037758;56;1136756;-77
2022/02/15 04:34:14;;;;;;;43.17;17.30;;;;;;;3.50;83.28;99933.87;5023658;57;1136655;-71
2022/02/15 04:39:21;;;;;;;35.67;15.93;;;;;;;3.48;83.45;99939.64;5037790;57;1136657;-75
2022/02/15 04:44:29;;;;;;;32.17;16.53;;;;;;;3.47;83.78;99945.34;5035238;57;1136737;-77
2022/02/15 04:49:34;;;;;;;35.97;16.33;;;;;;;3.47;83.94;99945.34;5037732;57;1136727;-72
2022/02/15 04:54:42;;;;;;;25.68;12.73;;;;;;;3.50;84.10;99949.55;5037731;56;1136575;-78
2022/02/15 04:59:48;;;;;;;29.37;15.77;;;;;;;3.53;84.27;99948.05;5038148;56;1136623;-79
2022/02/15 05:04:58;;;;;;;34.20;17.15;;;;;;;3.56;84.40;99938.72;5036293;56;1136645;-76
2022/02/15 05:10:12;;;;;;;36.37;16.00;;;;;;;3.59;84.89;99937.70;5034190;57;1136541;-69
2022/02/15 05:15:19;;;;;;;32.53;15.93;;;;;;;3.58;85.88;99939.48;5033419;57;1136536;-74
2022/02/15 05:20:39;;;;;;;38.43;16.40;;;;;;;3.60;86.25;99950.69;5031462;57;1136514;-80
2022/02/15 05:25:45;;;;;;;28.20;12.60;;;;;;;3.60;87.13;99954.62;5033242;57;1136558;-76
2022/02/15 05:31:04;;;;;;;29.60;15.77;;;;;;;3.59;87.90;99949.47;5021292;57;1136601;-75
2022/02/15 05:36:12;;;;;;;30.60;15.23;;;;;;;3.59;88.47;99950.78;4999623;57;1136773;-74
2022/02/15 05:41:20;;;;;;;27.80;12.73;;;;;;;3.64;88.37;99951.37;4999891;57;1136681;-73
2022/02/15 05:46:26;;;;;;;29.77;15.00;;;;;;;3.67;89.61;99951.16;5028936;57;1136692;-76
2022/02/15 05:51:33;;;;;;;25.03;14.77;;;;;;;3.66;89.57;99953.43;5028844;57;1136768;-77
2022/02/15 05:56:52;;;;;;;25.77;13.37;;;;;;;3.65;90.35;99960.44;5027942;57;1136792;-79
2022/02/15 06:02:09;;;;;;;33.33;17.90;;;;;;;3.64;91.35;99969.67;5027691;57;1136885;-75
2022/02/15 06:07:17;;;;;;;24.32;14.53;;;;;;;3.61;91.63;99968.53;5027986;57;1136581;-73
2022/02/15 06:12:23;;;;;;;39.63;17.57;;;;;;;3.58;92.53;99972.16;5032272;57;1136798;-75
2022/02/15 06:17:35;;;;;;;35.30;15.95;;;;;;;3.59;92.56;99976.92;5004308;57;1136863;-74
2022/02/15 06:22:41;;;;;;;28.17;15.40;;;;;;;3.62;93.08;99988.52;5004100;57;1136517;-72
2022/02/15 06:27:47;;;;;;;27.53;16.50;;;;;;;3.63;94.14;99992.36;5033292;57;1136844;-74
2022/02/15 06:32:55;;;;;;;37.03;20.00;;;;;;;3.63;94.40;99999.36;5032774;57;1136747;-72
2022/02/15 06:38:01;;;;;;;32.20;17.07;;;;;;;3.60;95.19;100009.98;5037443;57;1136753;-75
2022/02/15 06:43:07;;;;;;;35.07;17.37;;;;;;;3.57;96.13;100015.39;5037215;57;1138940;-76
2022/02/15 06:48:15;;;;;;;34.97;18.07;;;;;;;3.59;96.81;100031.37;5037535;57;1138725;-82
2022/02/15 06:53:22;;;;;;;31.02;16.20;;;;;;;3.58;97.37;100037.98;5037898;57;1138682;-77
2022/02/15 06:58:34;;;;;;;;;;;;;;;3.54;97.63;100035.55;5039293;57;1138770;-73
2022/02/15 07:03:40;;;;;;;36.15;18.40;;;;;;;3.60;99.10;100044.83;5054074;57;971965;-77
2022/02/15 07:08:46;;;;;;;29.52;14.90;;;;;;;3.58;98.71;100042.76;5028752;57;1136781;-75
2022/02/15 07:13:53;;;;;;;27.45;16.35;;;;;;;3.63;98.64;100043.35;5033606;57;1138923;-77
2022/02/15 07:19:04;;;;;;;30.60;14.87;;;;;;;3.66;99.04;100054.11;5033796;57;1138816;-74
2022/02/15 07:24:20;;;;;;;36.10;15.17;;;;;;;3.67;99.59;100057.07;4993689;57;1138852;-73
2022/02/15 07:29:43;;;;;;;35.38;16.77;;;;;;;3.70;99.65;100059.05;5033739;57;1138874;-76
2022/02/15 07:34:51;;;;;;;20.97;11.37;;;;;;;3.76;99.84;100046.95;5029110;57;1139305;-77
2022/02/15 07:39:57;;;;;;;26.12;15.70;;;;;;;3.82;99.95;100056.20;5033657;57;1138772;-73
2022/02/15 07:45:03;;;;;;;33.38;16.90;;;;;;;3.85;99.73;100049.03;5033564;57;1138814;-75
2022/02/15 07:50:10;;;;;;;33.33;15.33;;;;;;;3.88;99.72;100050.16;5033585;57;1138596;-75
2022/02/15 07:55:15;;;;;;;31.83;15.23;;;;;;;3.96;99.79;100051.05;5033386;57;1138689;-71
2022/02/15 08:00:22;;;;;;;32.30;14.63;;;;;;;3.98;100.00;100050.93;5033440;57;1138825;-76
2022/02/15 08:05:29;;;;;;;32.30;16.33;;;;;;;4.03;100.00;100069.83;5033167;57;1140915;-72
2022/02/15 08:10:37;;;;;;;33.57;17.97;;;;;;;4.09;100.00;100071.64;5034386;57;1140676;-77
2022/02/15 08:15:44;;;;;;;28.13;14.07;;;;;;;4.19;100.00;100058.38;5037506;57;1140889;-76
2022/02/15 08:20:49;;;;;;;31.07;14.60;;;;;;;4.36;100.00;100065.72;5037913;57;1141107;-77
2022/02/15 08:25:55;;;;;;;34.73;17.23;;;;;;;4.55;100.00;100076.78;5037735;57;1140962;-76
2022/02/15 08:31:02;;;;;;;30.45;16.87;;;;;;;4.68;99.76;100077.73;5037586;57;1140888;-76
2022/02/15 08:36:08;;;;;;;38.60;18.60;;;;;;;4.73;99.17;100068.30;5029788;57;1138899;-80
2022/02/15 08:41:14;;;;;;;29.13;13.53;;;;;;;4.87;99.27;100078.77;5004136;57;1138618;-79
2022/02/15 08:46:20;;;;;;;35.83;17.53;;;;;;;5.02;98.68;100084.85;5033171;57;1138776;-77
2022/02/15 08:51:25;;;;;;;24.97;12.80;;;;;;;5.07;98.61;100094.09;5032557;57;1173427;-78
2022/02/15 08:56:31;;;;;;;32.07;15.23;;;;;;;5.18;98.11;100096.92;5033212;57;1138599;-66
2022/02/15 09:01:36;;;;;;;25.70;13.07;;;;;;;5.24;98.14;100091.74;5052807;57;1138625;-68
2022/02/15 09:06:43;;;;;;;27.00;14.47;;;;;;;5.41;98.19;100101.17;5033216;57;1138640;-67
2022/02/15 09:11:50;;;;;;;24.97;14.17;;;;;;;5.52;97.92;100099.55;5028987;57;1138830;-69
2022/02/15 09:16:56;;;;;;;27.13;13.40;;;;;;;5.63;97.61;100105.45;5028938;57;1138739;-67
2022/02/15 09:22:03;;;;;;;29.82;13.48;;;;;;;5.72;97.03;100096.98;5028667;57;1138860;-67
2022/02/15 09:27:09;;;;;;;23.70;12.90;;;;;;;5.77;97.12;100113.28;5028477;57;1138862;-67
2022/02/15 09:32:15;;;;;;;26.80;13.68;;;;;;;5.97;97.07;100115.47;5032757;57;1141000;-68
2022/02/15 09:37:21;;;;;;;21.63;11.60;;;;;;;6.23;96.88;100115.09;5033155;57;1138833;-68
2022/02/15 09:42:26;;;;;;;30.30;14.77;;;;;;;6.47;96.38;100119.17;5036991;57;1140971;-69
2022/02/15 09:47:36;;;;;;;18.57;10.50;;;;;;;6.73;96.57;100116.56;5037333;57;1138649;-68
2022/02/15 09:52:46;;;;;;;27.15;11.55;;;;;;;6.94;94.51;100123.84;5037044;57;1138879;-66
2022/02/15 09:57:50;;;;;;;16.10;9.57;;;;;;;7.11;95.25;100123.14;5037345;57;1140895;-69
2022/02/15 10:02:57;;;;;;;22.57;10.87;;;;;;;7.24;94.00;100123.97;5037213;57;1136753;-67
2022/02/15 10:08:04;;;;;;;17.33;7.90;;;;;;;7.36;94.44;100135.78;5037182;57;1140834;-67
2022/02/15 10:13:14;;;;;;;19.03;10.70;;;;;;;7.42;93.53;100137.15;5037366;56;1136674;-69
2022/02/15 10:18:35;;;;;;;21.50;11.77;;;;;;;7.44;94.10;100131.78;5037038;56;1140813;-69
2022/02/15 10:23:37;;;;;;;19.85;10.43;;;;;;;7.45;93.47;100135.63;5035148;57;1138963;-68
2022/02/15 10:28:43;;;;;;;17.65;9.40;;;;;;;7.50;93.39;100133.95;5037870;56;1140909;-66
2022/02/15 10:33:51;;;;;;;17.67;10.05;;;;;;;7.51;93.11;100136.95;5051916;57;1138922;-68
2022/02/15 10:38:57;;;;;;;18.02;10.78;;;;;;;7.57;93.97;100133.42;5022376;57;1140760;-67
2022/02/15 10:44:03;;;;;;;18.57;10.15;;;;;;;7.65;93.60;100132.39;5037669;57;1141096;-67
2022/02/15 10:49:08;;;;;;;23.67;12.27;;;;;;;7.72;92.36;100132.80;5038238;57;1138781;-66
2022/02/15 10:54:14;;;;;;;22.00;10.27;;;;;;;7.85;92.96;100127.02;5037621;57;1140819;-68
2022/02/15 10:59:22;;;;;;;23.47;11.67;;;;;;;7.94;92.73;100116.31;5037605;57;1140811;-68
2022/02/15 11:04:35;;;;;;;20.80;10.93;;;;;;;8.12;92.89;100128.10;5037504;57;1140848;-66
2022/02/15 11:09:58;;;;;;;15.65;9.30;;;;;;;8.28;92.63;100119.43;5037379;57;1141035;-68
2022/02/15 11:15:07;;;;;;;24.10;11.65;;;;;;;8.40;92.13;100123.00;5025672;57;1138761;-66
2022/02/15 11:20:18;;;;;;;15.30;9.47;;;;;;;8.56;91.27;100109.00;5037448;57;1141142;-68
2022/02/15 11:25:35;;;;;;;17.63;9.80;;;;;;;8.66;90.23;100121.03;5037695;57;1138606;-68
2022/02/15 11:31:00;;;;;;;23.63;11.17;;;;;;;8.81;90.74;100127.30;5037568;57;1138764;-67
2022/02/15 11:36:16;;;;;;;22.70;10.50;;;;;;;8.87;89.63;100133.88;5037771;57;1140845;-68
2022/02/15 11:41:22;;;;;;;18.47;6.97;;;;;;;8.92;90.93;100129.58;5037323;57;1140806;-66
2022/02/15 11:46:43;;;;;;;15.30;7.80;;;;;;;9.28;89.97;100129.84;5037431;57;1138759;-67
2022/02/15 11:51:49;;;;;;;14.87;7.40;;;;;;;9.64;87.53;100131.36;5037176;57;1138821;-69
2022/02/15 11:56:56;;;;;;;20.75;8.43;;;;;;;9.81;84.63;100130.84;5037919;57;1138871;-69
2022/02/15 12:02:11;;;;;;;13.40;6.93;;;;;;;9.95;84.50;100131.89;5078509;56;1138771;-67
2022/02/15 12:07:15;;;;;;;14.93;6.97;;;;;;;10.03;82.95;100128.16;5090787;56;1138617;-69
2022/02/15 12:12:20;;;;;;;10.17;6.53;;;;;;;10.16;82.43;100133.27;5091806;56;1140871;-67
2022/02/15 12:17:27;;;;;;;10.30;5.80;;;;;;;10.17;81.28;100141.08;5091382;57;1140650;-67
2022/02/15 12:22:33;;;;;;;15.27;5.67;;;;;;;10.25;83.07;100138.30;5091438;56;1140848;-68
2022/02/15 12:27:57;;;;;;;11.03;5.65;;;;;;;10.23;82.37;100141.59;5101653;56;1140768;-69
2022/02/15 12:33:06;;;;;;;12.35;5.92;;;;;;;10.12;81.12;100147.21;5048897;57;1140875;-68
2022/02/15 12:38:12;;;;;;;17.83;7.40;;;;;;;9.96;81.47;100153.86;5037283;57;1141217;-67
2022/02/15 12:43:18;;;;;;;10.58;6.55;;;;;;;9.83;82.33;100160.62;5037231;57;1138944;-69
2022/02/15 12:48:24;;;;;;;13.63;6.10;;;;;;;9.77;83.27;100164.61;5037391;57;1138667;-68
2022/02/15 12:53:30;;;;;;;13.43;5.53;;;;;;;10.00;83.43;100160.11;5037118;57;1138728;-68
2022/02/15 12:58:36;;;;;;;13.00;6.47;;;;;;;10.36;82.84;100153.66;5037650;57;1140788;-69
2022/02/15 13:03:44;;;;;;;15.20;5.73;;;;;;;10.63;79.96;100153.65;5037025;56;1141076;-69
2022/02/15 13:08:57;;;;;;;12.37;5.80;;;;;;;10.70;79.26;100167.54;5036733;57;1140858;-68
2022/02/15 13:14:02;;;;;;;;;;;;;;;10.44;78.61;100167.07;5040794;56;1140942;-68
2022/02/15 13:19:09;;;;;;;17.07;7.87;;;;;;;10.20;80.13;100165.97;5053370;57;976061;-69
2022/02/15 13:24:20;;;;;;;14.83;6.97;;;;;;;10.02;81.01;100168.75;5037149;57;1138733;-69
2022/02/15 13:29:32;;;;;;;13.10;6.73;;;;;;;9.86;81.07;100161.70;5037208;57;1141144;-69
2022/02/15 13:34:39;;;;;;;19.63;7.30;;;;;;;9.72;82.34;100162.81;5037164;57;1138696;-68
2022/02/15 13:39:46;;;;;;;11.13;5.27;;;;;;;9.93;83.20;100180.55;5037328;57;1138802;-67
2022/02/15 13:44:52;;;;;;;27.20;8.03;;;;;;;9.97;82.14;100177.52;5039443;57;1138734;-67
2022/02/15 13:49:59;;;;;;;20.97;6.22;;;;;;;9.96;82.83;100180.28;5056785;57;1138983;-69
2022/02/15 13:55:10;;;;;;;18.00;5.92;;;;;;;9.93;82.64;100184.00;5056847;57;1138876;-68
2022/02/15 14:00:15;;;;;;;12.78;5.10;;;;;;;9.84;82.71;100180.31;5082186;56;1138938;-69
2022/02/15 14:05:21;;;;;;;14.30;4.23;;;;;;;9.81;83.37;100177.91;5121300;56;1138748;-68
2022/02/15 14:10:27;;;;;;;12.33;4.63;;;;;;;9.94;83.51;100179.56;5040449;56;1138964;-68
2022/02/15 14:15:32;;;;;;;12.93;4.00;;;;;;;10.11;82.79;100177.24;5019559;56;1242096;-67
2022/02/15 14:20:38;;;;;;;10.70;4.03;;;;;;;10.27;83.43;100172.90;4986558;56;1141013;-69
2022/02/15 14:25:44;;;;;;;5.97;2.63;;;;;;;10.33;81.06;100182.14;5011665;56;1140895;-68
2022/02/15 14:30:50;;;;;;;115.80;90.57;;;;;;;10.08;79.70;100193.34;5003345;56;1138862;-69
2022/02/15 14:36:00;;;;;;;112.57;93.77;;;;;;;9.90;81.00;100184.27;5056405;57;1144964;-69
2022/02/15 14:41:03;;;;;;;29.20;21.15;;;;;;;9.79;81.43;100188.23;5002720;57;1143095;-67
2022/02/15 14:46:09;;;;;;;41.35;26.87;;;;;;;9.68;81.68;100193.05;4974636;58;1140972;-67
2022/02/15 14:51:14;;;;;;;46.17;29.20;;;;;;;9.62;82.42;100188.27;4902298;58;1140864;-67
2022/02/15 14:56:20;;;;;;;47.87;32.17;;;;;;;9.64;82.70;100190.28;4922787;59;1140892;-69
2022/02/15 15:01:26;;;;;;;19.93;8.07;;;;;;;9.64;82.61;100192.08;4973187;57;1140783;-68
2022/02/15 15:06:32;;;;;;;23.60;8.40;;;;;;;9.63;83.06;100195.69;5004501;57;1138703;-67
2022/02/15 15:11:40;;;;;;;9.57;4.67;;;;;;;9.60;83.37;100199.44;5004754;57;1138595;-69
2022/02/15 15:16:46;;;;;;;14.35;4.62;;;;;;;9.53;83.40;100213.58;5004920;57;1136572;-67
2022/02/15 15:21:52;;;;;;;6.70;3.17;;;;;;;9.50;83.61;100216.45;5005112;56;1138582;-68
2022/02/15 15:26:58;;;;;;;20.17;9.20;;;;;;;9.48;83.87;100213.56;5005717;57;1141396;-67
2022/02/15 15:32:04;;;;;;;17.52;8.48;;;;;;;9.46;84.14;100219.47;5004454;56;1138599;-68
2022/02/15 15:37:10;;;;;;;40.05;19.80;;;;;;;9.43;84.37;100224.50;5004275;57;1138827;-69
2022/02/15 15:42:16;;;;;;;39.03;18.73;;;;;;;9.41;84.50;100230.37;5003987;57;1140919;-66
2022/02/15 15:47:22;;;;;;;84.60;42.63;;;;;;;9.40;84.44;100233.97;5003941;57;1140859;-67
2022/02/15 15:52:28;;;;;;;63.23;31.80;;;;;;;9.37;84.66;100228.92;5032880;56;1140854;-69
2022/02/15 15:57:34;;;;;;;35.73;16.40;;;;;;;9.33;84.86;100233.23;5037330;57;1140865;-67
2022/02/15 16:02:40;;;;;;;37.70;16.30;;;;;;;9.28;85.05;100236.24;5081975;56;1140735;-70
2022/02/15 16:07:48;;;;;;;444.37;216.60;;;;;;;9.24;85.13;100237.91;5091495;56;1140782;-67
2022/02/15 16:12:54;;;;;;;97.57;34.63;;;;;;;9.24;85.21;100239.22;5090700;56;1144942;-68
2022/02/15 16:18:00;;;;;;;53.47;20.23;;;;;;;9.24;85.22;100237.91;5091494;56;1146492;-68
2022/02/15 16:23:07;;;;;;;52.57;20.53;;;;;;;9.23;85.29;100240.18;5091360;56;1140856;-68
2022/02/15 16:28:21;;;;;;;36.30;13.83;;;;;;;9.17;85.48;100242.31;5064645;56;1140705;-70
2022/02/15 16:33:20;;;;;;;24.80;10.33;;;;;;;9.12;85.56;100235.73;5032330;57;1140725;-67
2022/02/15 16:38:30;;;;;;;215.47;66.87;;;;;;;9.09;85.61;100228.05;5033060;57;1140852;-67
2022/02/15 16:43:33;;;;;;;141.88;41.05;;;;;;;9.04;85.68;100248.16;5032693;57;1142871;-67
2022/02/15 16:48:39;;;;;;;142.62;54.98;;;;;;;9.01;85.63;100254.98;5033005;57;1143135;-67
2022/02/15 16:53:45;;;;;;;105.40;47.20;;;;;;;9.01;85.75;100256.30;5047203;57;1143338;-68
2022/02/15 16:58:50;;;;;;;235.23;88.60;;;;;;;9.02;85.83;100255.83;5052797;56;1142873;-68
2022/02/15 17:03:57;;;;;;;132.63;47.47;;;;;;;9.00;85.93;100257.77;5048836;56;1143188;-69
2022/02/15 17:09:04;;;;;;;95.60;50.33;;;;;;;8.95;85.91;100255.47;5056870;57;1143048;-67
2022/02/15 17:14:10;;;;;;;84.05;41.15;;;;;;;8.92;86.17;100254.37;5116619;56;1141085;-67
2022/02/15 17:19:16;;;;;;;48.67;26.13;;;;;;;8.90;86.22;100255.44;5121428;56;1140962;-69
2022/02/15 17:24:22;;;;;;;86.67;28.33;;;;;;;8.88;86.29;100263.94;5121509;56;1138935;-68
2022/02/15 17:29:32;;;;;;;164.83;48.17;;;;;;;8.83;86.24;100256.86;5117258;56;1138671;-68
2022/02/15 17:34:37;;;;;;;1206.53;584.23;;;;;;;8.83;86.16;100260.34;5056605;57;1142947;-67
2022/02/15 17:39:43;;;;;;;950.33;489.40;;;;;;;8.86;86.30;100253.50;5056192;56;1147028;-69
2022/02/15 17:44:52;;;;;;;388.80;187.90;;;;;;;8.91;86.48;100267.67;5056649;57;1145123;-67
2022/02/15 17:50:00;;;;;;;136.80;69.00;;;;;;;8.89;86.43;100267.78;5057109;57;1145015;-68
2022/02/15 17:55:06;;;;;;;90.05;47.58;;;;;;;8.88;86.59;100263.45;5044264;57;1142945;-69
2022/02/15 18:00:12;;;;;;;69.65;35.58;;;;;;;8.83;86.39;100260.82;5037307;57;1140946;-68
2022/02/15 18:05:17;;;;;;;45.67;16.93;;;;;;;8.75;86.38;100263.53;5037475;56;1138994;-69
2022/02/15 18:10:24;;;;;;;54.07;20.07;;;;;;;8.68;86.40;100254.89;5037310;56;1138782;-67
2022/02/15 18:15:30;;;;;;;57.30;25.63;;;;;;;8.63;86.53;100253.06;5037069;57;1138747;-68
2022/02/15 18:20:35;;;;;;;69.33;22.47;;;;;;;8.58;86.55;100263.09;5037260;57;1138834;-67
2022/02/15 18:25:45;;;;;;;45.67;19.83;;;;;;;8.54;86.72;100253.75;5037223;57;1138733;-68
2022/02/15 18:30:56;;;;;;;37.20;12.47;;;;;;;8.51;86.68;100249.53;5070903;56;1138942;-67
2022/02/15 18:36:07;;;;;;;52.20;21.03;;;;;;;8.47;86.41;100234.89;5121724;56;1140899;-67
2022/02/15 18:41:16;;;;;;;36.45;17.10;;;;;;;8.42;86.41;100237.86;5121431;56;1140811;-69
2022/02/15 18:46:21;;;;;;;41.37;20.03;;;;;;;8.40;86.56;100237.13;5121627;56;1140979;-68
2022/02/15 18:51:27;;;;;;;37.38;16.48;;;;;;;8.39;86.79;100236.79;5121606;56;1140929;-68
2022/02/15 18:56:34;;;;;;;51.53;22.40;;;;;;;8.36;86.70;100230.42;5121704;56;1140976;-68
2022/02/15 19:01:40;;;;;;;114.23;51.00;;;;;;;8.28;86.65;100232.72;5121980;56;1138811;-68
2022/02/15 19:06:46;;;;;;;46.47;19.37;;;;;;;8.20;86.73;100230.29;5121869;56;1141028;-68
2022/02/15 19:11:55;;;;;;;327.33;97.47;;;;;;;8.11;86.91;100243.16;5122042;56;1138765;-69
2022/02/15 19:17:01;;;;;;;405.27;127.37;;;;;;;8.01;86.93;100244.77;5122014;56;1140875;-67
2022/02/15 19:22:11;;;;;;;230.07;72.00;;;;;;;7.93;86.92;100255.03;5121700;56;1145109;-68
2022/02/15 19:27:17;;;;;;;94.57;35.30;;;;;;;7.87;87.15;100253.28;5121833;56;1142924;-67
2022/02/15 19:32:23;;;;;;;82.07;33.43;;;;;;;7.76;87.40;100260.63;5086571;55;1140926;-69
2022/02/15 19:37:31;;;;;;;56.23;23.83;;;;;;;7.64;87.70;100258.83;5037727;57;1138686;-69
2022/02/15 19:42:37;;;;;;;59.03;25.60;;;;;;;7.53;88.09;100262.69;5037792;57;1138607;-68
2022/02/15 19:47:43;;;;;;;58.17;24.33;;;;;;;7.45;88.30;100266.34;5012531;57;1138724;-68
2022/02/15 19:52:49;;;;;;;87.00;34.00;;;;;;;7.44;88.51;100272.07;5036439;57;1140712;-68
2022/02/15 19:57:55;;;;;;;140.47;63.23;;;;;;;7.46;88.78;100278.08;5035677;57;1140884;-67
2022/02/15 20:03:01;;;;;;;107.20;52.30;;;;;;;7.51;89.13;100268.05;5017495;57;1143036;-68
2022/02/15 20:08:07;;;;;;;110.60;52.70;;;;;;;7.55;89.36;100268.22;5037521;57;1142793;-67
2022/02/15 20:13:13;;;;;;;89.80;41.77;;;;;;;7.53;89.23;100266.16;5037573;57;1140682;-69
2022/02/15 20:18:19;;;;;;;86.53;41.77;;;;;;;7.47;89.38;100273.66;5037816;57;1138739;-74
2022/02/15 20:23:25;;;;;;;122.47;54.40;;;;;;;7.44;89.57;100268.59;5036292;57;1140777;-78
2022/02/15 20:28:31;;;;;;;56.70;27.00;;;;;;;7.43;89.69;100259.86;5037234;57;1142841;-68
2022/02/15 20:33:38;;;;;;;72.43;34.70;;;;;;;7.42;89.93;100262.12;5033372;57;1140707;-67
2022/02/15 20:38:44;;;;;;;42.43;18.77;;;;;;;7.34;90.10;100254.73;5033040;57;1140908;-67
2022/02/15 20:43:49;;;;;;;37.83;16.23;;;;;;;7.28;90.94;100264.85;5033105;57;1138721;-69
2022/02/15 20:48:56;;;;;;;39.70;19.80;;;;;;;7.24;90.99;100256.80;5033181;57;1140692;-69
2022/02/15 20:54:02;;;;;;;38.30;16.50;;;;;;;7.17;91.65;100256.39;5013518;57;1141158;-76
2022/02/15 20:59:07;;;;;;;35.40;16.57;;;;;;;7.14;92.04;100251.33;5032530;57;1140835;-76
2022/02/15 21:04:13;;;;;;;45.63;19.90;;;;;;;7.16;92.24;100244.65;5065772;56;1140777;-79
2022/02/15 21:09:19;;;;;;;39.23;16.77;;;;;;;7.12;92.76;100245.33;5071926;56;1140357;-77
2022/02/15 21:14:26;;;;;;;46.83;21.30;;;;;;;7.16;92.83;100245.97;5076368;56;1140658;-74
2022/02/15 21:19:31;;;;;;;39.27;18.27;;;;;;;7.14;93.16;100243.91;5079958;56;1139012;-77
2022/02/15 21:24:37;;;;;;;53.58;23.27;;;;;;;7.15;93.17;100243.81;5077317;56;1140811;-73
2022/02/15 21:29:43;;;;;;;46.37;20.87;;;;;;;7.16;93.26;100232.34;5044382;56;1141027;-75
2022/02/15 21:34:48;;;;;;;32.80;16.07;;;;;;;7.15;94.09;100229.81;5068251;56;1140807;-72
2022/02/15 21:39:54;;;;;;;44.73;20.23;;;;;;;7.18;94.02;100229.11;5048082;56;1141022;-78
2022/02/15 21:44:59;;;;;;;35.07;18.87;;;;;;;7.18;93.91;100225.67;5037432;56;1140733;-71
2022/02/15 21:50:07;;;;;;;43.63;21.07;;;;;;;7.17;93.70;100220.03;5036827;57;1140927;-77
2022/02/15 21:55:12;;;;;;;42.15;19.48;;;;;;;7.16;93.94;100216.56;5037444;56;1140911;-77
2022/02/15 22:00:19;;;;;;;36.13;18.32;;;;;;;7.13;94.05;100211.51;5037485;57;1138837;-76
2022/02/15 22:05:24;;;;;;;40.83;21.33;;;;;;;7.07;94.94;100215.86;5037186;57;1141024;-76
2022/02/15 22:10:32;;;;;;;29.90;16.30;;;;;;;7.02;94.67;100204.36;5037339;57;1141008;-76
2022/02/15 22:15:37;;;;;;;39.20;19.63;;;;;;;6.97;95.62;100202.98;5037487;57;1138845;-75
2022/02/15 22:20:43;;;;;;;46.53;22.87;;;;;;;6.96;95.11;100205.23;5037279;57;1140939;-74
2022/02/15 22:25:49;;;;;;;55.70;20.57;;;;;;;6.93;95.26;100195.76;5037819;57;1140856;-75
2022/02/15 22:30:55;;;;;;;33.03;18.33;;;;;;;6.88;95.40;100193.06;5036115;57;1141062;-72
2022/02/15 22:36:04;;;;;;;51.47;23.80;;;;;;;6.88;95.40;100193.06;5033360;57;1140836;-76
2022/02/15 22:41:09;;;;;;;36.90;18.25;;;;;;;6.86;95.42;100190.56;5033589;57;1138844;-70
2022/02/15 22:46:15;;;;;;;51.13;26.12;;;;;;;6.86;95.37;100185.31;5033375;57;1140909;-75
2022/02/15 22:51:21;;;;;;;63.90;29.90;;;;;;;6.86;95.61;100187.09;5033426;57;1140983;-73
2022/02/15 22:56:27;;;;;;;61.67;29.37;;;;;;;6.82;95.35;100178.56;5033596;57;1138683;-77
2022/02/15 23:01:32;;;;;;;38.63;21.20;;;;;;;6.83;95.29;100178.94;5033237;57;1141267;-70
2022/02/15 23:22:47;;;;;;;47.33;23.57;;;;;;;6.70;95.31;100139.98;5033581;57;1138897;-73
2022/02/15 23:27:53;;;;;;;38.07;20.00;;;;;;;6.68;94.84;100145.33;5033075;57;1140923;-74